Tamanrasset, Algeria
Current Conditions -  °F | °C
As of 4:30 AM on Tuesday 21 Oct 2014 (Local Time) from DAAT Reporting Station
Clear Clear  
Wind Chill: 17°   Ceiling: Unl
Heat Index: 17°   Visibility: 6mi
Dew Point:   Wind: 9mph
Humidity: 32%   Direction: 100°E
Pressure: 30.15"   Gusts: NA
Location:  22.78°N, 5.52°E
Report Text: DAAT 210330Z 10008KT CAVOK 17/00 Q1021
Loading
Personal Weather Stations






























Interactive Weather Map
Tropical Storm Tracking
New forecast layout! Learn more

10-Day Weather Forecast

Advertisements
Track Severe Weather on mobile